Clipper 3 — ZMT3984 — position and weather

sailwx.info

Track history (hours):
 
Tides and Currents Weather Stations Pressure Air Temp Water Temp Dewpoint Dewpoint Depression Visibility Wind Speed Wind Dir Waves Ship Positions

Clipper 3

Last reported at 2015-May-01 07:05 UTC. Time now 2015-May-03 17:53 UTC.
Position S 36°51' E 174°54'.

Length 14 m; draft 1 m.

Type: High speed craft. MMSI: 512000741.

Date/timePositionNaut miles runAvg speedWind from/ knotsBaromVisibWave heightAir tempDewpointWater temp
2015-May-01 07:05S 36°51' E 174°54'712.6
2015-May-01 06:34S 36°51' E 174°46'6 5.7
2015-May-01 05:27S 36°50' E 174°54'0 0.1
2015-May-01 04:07S 36°51' E 174°54'4 6.7
2015-May-01 03:33S 36°50' E 174°49'2 0.3
2015-Apr-30 21:27S 36°50' E 174°47'3 2.5
2015-Apr-30 20:11S 36°50' E 174°51'4 0.3
2015-Apr-30 06:30S 36°50' E 174°46'6 0.7
2015-Apr-29 21:05S 36°51' E 174°54'3 6.4
2015-Apr-29 20:33S 36°50' E 174°50'2 2.2
2015-Apr-29 19:33S 36°50' E 174°47'5 0.4
2015-Apr-29 06:17S 36°51' E 174°54'6 3.5
2015-Apr-29 04:33S 36°51' E 174°46'6 2.6
2015-Apr-29 02:16S 36°51' E 174°53'0 0.2
2015-Apr-29 00:17S 36°51' E 174°54'2 0.8
2015-Apr-28 21:33S 36°50' E 174°51'2 1.6
2015-Apr-28 20:16S 36°51' E 174°54'6 0.5
2015-Apr-28 06:34S 36°51' E 174°46'1 0.5
2015-Apr-28 05:14S 36°50' E 174°47'5 4.6
2015-Apr-28 04:05S 36°51' E 174°53'3 5.5
2015-Apr-28 03:33S 36°50' E 174°50'2 0.4
2015-Apr-27 21:33S 36°50' E 174°53'  
2015-Apr-24 06:33S 36°51' E 174°46'5 0.6
2015-Apr-23 21:33S 36°50' E 174°52'1 1.1
2015-Apr-23 20:18S 36°51' E 174°54'1 0.9
2015-Apr-23 19:34S 36°51' E 174°55'7 0.5
2015-Apr-23 06:33S 36°51' E 174°46'4 3.4
2015-Apr-23 05:22S 36°50' E 174°51'1 0.1
2015-Apr-22 21:33S 36°50' E 174°52'2 1.2
2015-Apr-22 20:16S 36°51' E 174°54'1 0.8
2015-Apr-22 19:34S 36°51' E 174°55'7 0.5
2015-Apr-22 06:33S 36°51' E 174°46'6 0.6
2015-Apr-21 21:34S 36°51' E 174°53'1 0.7
2015-Apr-21 20:16S 36°50' E 174°54'1 0.7
2015-Apr-21 19:34S 36°51' E 174°55'  
Track history (hours):
 
Tides and Currents Weather Stations Pressure Air Temp Water Temp Dewpoint Dewpoint Depression Visibility Wind Speed Wind Dir Waves Ship Positions

Clipper 3

Last reported at 2015-May-01 07:05 UTC. Time now 2015-May-03 17:53 UTC.
Position S 36°51' E 174°54'.

Length 14 m; draft 1 m.

Type: High speed craft. MMSI: 512000741.

Date/timePositionNaut miles runAvg speedWind from/ knotsBaromVisibWave heightAir tempDewpointWater temp
2015-May-01 07:05S 36°51' E 174°54'712.6
2015-May-01 06:34S 36°51' E 174°46'6 5.7
2015-May-01 05:27S 36°50' E 174°54'0 0.1
2015-May-01 04:07S 36°51' E 174°54'4 6.7
2015-May-01 03:33S 36°50' E 174°49'2 0.3
2015-Apr-30 21:27S 36°50' E 174°47'3 2.5
2015-Apr-30 20:11S 36°50' E 174°51'4 0.3
2015-Apr-30 06:30S 36°50' E 174°46'6 0.7
2015-Apr-29 21:05S 36°51' E 174°54'3 6.4
2015-Apr-29 20:33S 36°50' E 174°50'2 2.2
2015-Apr-29 19:33S 36°50' E 174°47'5 0.4
2015-Apr-29 06:17S 36°51' E 174°54'6 3.5
2015-Apr-29 04:33S 36°51' E 174°46'6 2.6
2015-Apr-29 02:16S 36°51' E 174°53'0 0.2
2015-Apr-29 00:17S 36°51' E 174°54'2 0.8
2015-Apr-28 21:33S 36°50' E 174°51'2 1.6
2015-Apr-28 20:16S 36°51' E 174°54'6 0.5
2015-Apr-28 06:34S 36°51' E 174°46'1 0.5
2015-Apr-28 05:14S 36°50' E 174°47'5 4.6
2015-Apr-28 04:05S 36°51' E 174°53'3 5.5
2015-Apr-28 03:33S 36°50' E 174°50'2 0.4
2015-Apr-27 21:33S 36°50' E 174°53'  
2015-Apr-24 06:33S 36°51' E 174°46'5 0.6
2015-Apr-23 21:33S 36°50' E 174°52'1 1.1
2015-Apr-23 20:18S 36°51' E 174°54'1 0.9
2015-Apr-23 19:34S 36°51' E 174°55'7 0.5
2015-Apr-23 06:33S 36°51' E 174°46'4 3.4
2015-Apr-23 05:22S 36°50' E 174°51'1 0.1
2015-Apr-22 21:33S 36°50' E 174°52'2 1.2
2015-Apr-22 20:16S 36°51' E 174°54'1 0.8
2015-Apr-22 19:34S 36°51' E 174°55'7 0.5
2015-Apr-22 06:33S 36°51' E 174°46'6 0.6
2015-Apr-21 21:34S 36°51' E 174°53'1 0.7
2015-Apr-21 20:16S 36°50' E 174°54'1 0.7
2015-Apr-21 19:34S 36°51' E 174°55'  

Dump ship's entire track history